Time;durP1;ratioP1;P1;durP2;ratioP2;P2;SDS_P1;SDS_P2;PMS_P1;PMS_P2;Temp;Humidity;BMP_temperature;BMP_pressure;BME280_temperature;BME280_humidity;BME280_pressure;Samples;Min_cycle;Max_cycle;Signal;HPM_P1;HPM_P2
2023/04/09 00:01:09;;;;;;;;;;;7.60;71.80;;;;;;5102885;27;88074;-40
2023/04/09 00:03:35;;;;;;;;;;;7.50;71.60;;;;;;5104149;27;89747;-40
2023/04/09 00:06:00;;;;;;;;;;;7.50;71.70;;;;;;5103700;27;90069;-40
2023/04/09 00:08:26;;;;;;;;;;;7.50;71.70;;;;;;5104076;27;87188;-40
2023/04/09 00:10:52;;;;;;;;;;;7.50;71.70;;;;;;5106377;27;88663;-40
2023/04/09 00:13:18;;;;;;;;;;;7.50;71.70;;;;;;5103579;27;87195;-40
2023/04/09 00:15:46;;;;;;;;;;;7.50;71.70;;;;;;5104344;27;87729;-40
2023/04/09 00:18:12;;;;;;;;;;;7.50;71.70;;;;;;5104231;27;88634;-40
2023/04/09 00:20:38;;;;;;;;;;;7.50;71.70;;;;;;5103784;27;87135;-40
2023/04/09 00:23:03;;;;;;;;;;;7.50;71.60;;;;;;5103815;27;89026;-40
2023/04/09 00:25:29;;;;;;;;;;;7.50;71.70;;;;;;5102712;27;90384;-40
2023/04/09 00:27:55;;;;;;;;;;;7.50;71.80;;;;;;5103699;27;87205;-40
2023/04/09 00:30:21;;;;;;;;;;;7.50;71.70;;;;;;5103879;27;88876;-40
2023/04/09 00:32:46;;;;;;;;;;;7.50;72.20;;;;;;5106311;27;89830;-40
2023/04/09 00:35:12;;;;;;;;;;;7.50;71.70;;;;;;5104154;27;86988;-40
2023/04/09 00:37:38;;;;;;;;;;;7.50;71.70;;;;;;5103078;27;89732;-40
2023/04/09 00:40:04;;;;;;;;;;;7.50;71.70;;;;;;5103482;27;87161;-40
2023/04/09 00:42:33;;;;;;;;;;;7.50;71.80;;;;;;5104287;27;89031;-40
2023/04/09 00:44:58;;;;;;;;;;;7.40;71.70;;;;;;5103310;27;89333;-40
2023/04/09 00:47:24;;;;;;;;;;;7.40;71.70;;;;;;5099490;27;87320;-40
2023/04/09 00:49:50;;;;;;;;;;;7.50;71.80;;;;;;5102637;27;88704;-40
2023/04/09 00:52:15;;;;;;;;;;;7.50;71.70;;;;;;5103358;27;88803;-40
2023/04/09 00:54:41;;;;;;;;;;;7.40;71.80;;;;;;5106681;27;87109;-40
2023/04/09 00:57:07;;;;;;;;;;;7.40;71.80;;;;;;5103264;27;89409;-40
2023/04/09 00:59:32;;;;;;;;;;;7.40;71.80;;;;;;5103412;27;87052;-40
2023/04/09 01:01:58;;;;;;;;;;;7.40;71.80;;;;;;5103457;27;88536;-40
2023/04/09 01:04:24;;;;;;;;;;;7.40;71.80;;;;;;5103014;27;88815;-40
2023/04/09 01:06:49;;;;;;;;;;;7.40;71.70;;;;;;5103590;27;86375;-40
2023/04/09 01:09:15;;;;;;;;;;;7.40;71.70;;;;;;5103075;27;88123;-40
2023/04/09 01:11:52;;;;;;;;;;;7.40;71.80;;;;;;5102511;27;89322;-40
2023/04/09 01:14:28;;;;;;;;;;;7.40;71.80;;;;;;5097193;27;88070;-40
2023/04/09 01:17:11;;;;;;;;;;;7.40;71.70;;;;;;5105687;27;91058;-40
2023/04/09 01:19:42;;;;;;;;;;;7.40;71.70;;;;;;5100267;27;86992;-40
2023/04/09 01:22:13;;;;;;;;;;;7.40;71.70;;;;;;5103334;27;88525;-40
2023/04/09 01:24:41;;;;;;;;;;;7.40;71.70;;;;;;5102688;27;89735;-40
2023/04/09 01:27:07;;;;;;;;;;;7.40;71.80;;;;;;5103152;27;87117;-40
2023/04/09 01:29:34;;;;;;;;;;;7.40;71.80;;;;;;5103276;27;87210;-40
2023/04/09 01:32:04;;;;;;;;;;;7.40;71.80;;;;;;5102865;27;88647;-40
2023/04/09 01:34:30;;;;;;;;;;;7.40;71.80;;;;;;5102433;27;87215;-40
2023/04/09 01:36:57;;;;;;;;;;;7.40;71.80;;;;;;5105022;27;87583;-40
2023/04/09 01:39:22;;;;;;;;;;;7.40;71.80;;;;;;5102042;27;88017;-40
2023/04/09 01:41:49;;;;;;;;;;;7.40;71.80;;;;;;5102807;27;89940;-40
2023/04/09 01:44:15;;;;;;;;;;;7.40;71.70;;;;;;5102336;27;89540;-40
2023/04/09 01:46:41;;;;;;;;;;;7.30;72.30;;;;;;5102378;27;87126;-40
2023/04/09 01:49:08;;;;;;;;;;;7.40;71.80;;;;;;5102535;27;88986;-40
2023/04/09 01:51:34;;;;;;;;;;;7.40;71.70;;;;;;5102034;27;89677;-40
2023/04/09 01:53:59;;;;;;;;;;;7.40;71.70;;;;;;5102417;27;87085;-40
2023/04/09 01:56:25;;;;;;;;;;;7.30;71.80;;;;;;5102706;27;88534;-40
2023/04/09 01:58:51;;;;;;;;;;;7.40;71.80;;;;;;5105440;27;89360;-40
2023/04/09 02:01:23;;;;;;;;;;;7.30;71.70;;;;;;5102398;27;88809;-40
2023/04/09 02:04:00;;;;;;;;;;;7.30;71.80;;;;;;5098233;27;90668;-40
2023/04/09 02:06:33;;;;;;;;;;;7.30;71.70;;;;;;5102312;27;87125;-40
2023/04/09 02:08:59;;;;;;;;;;;7.30;71.70;;;;;;5099336;27;87783;-40
2023/04/09 02:11:25;;;;;;;;;;;7.30;71.70;;;;;;5102021;27;88016;-40
2023/04/09 02:13:52;;;;;;;;;;;7.30;71.80;;;;;;5102157;27;87291;-40
2023/04/09 02:16:18;;;;;;;;;;;7.30;71.80;;;;;;5102019;27;88675;-40
2023/04/09 02:18:44;;;;;;;;;;;7.30;71.80;;;;;;5102111;27;89188;-40
2023/04/09 02:21:10;;;;;;;;;;;7.30;71.80;;;;;;5106034;27;86411;-40
2023/04/09 02:23:35;;;;;;;;;;;7.30;71.80;;;;;;5101872;27;88350;-40
2023/04/09 02:26:01;;;;;;;;;;;7.30;71.80;;;;;;5105937;27;87107;-40
2023/04/09 02:28:27;;;;;;;;;;;7.30;71.80;;;;;;5105491;27;88706;-40
2023/04/09 02:30:52;;;;;;;;;;;7.30;71.90;;;;;;5105489;27;89528;-40
2023/04/09 02:33:18;;;;;;;;;;;7.30;71.80;;;;;;5105680;27;87119;-41
2023/04/09 02:35:43;;;;;;;;;;;7.30;71.80;;;;;;5105801;27;88746;-40
2023/04/09 02:38:12;;;;;;;;;;;7.30;71.80;;;;;;5105372;27;88922;-40
2023/04/09 02:40:41;;;;;;;;;;;7.30;71.80;;;;;;5105622;27;87202;-40
2023/04/09 02:43:07;;;;;;;;;;;7.30;71.80;;;;;;5108393;27;88842;-40
2023/04/09 02:45:32;;;;;;;;;;;7.30;71.90;;;;;;5106487;27;86276;-40
2023/04/09 02:47:58;;;;;;;;;;;7.30;71.80;;;;;;5101698;27;88272;-40
2023/04/09 02:50:23;;;;;;;;;;;7.30;71.80;;;;;;5105564;27;88271;-40
2023/04/09 02:52:49;;;;;;;;;;;7.30;71.80;;;;;;5105117;27;88082;-40
2023/04/09 02:55:14;;;;;;;;;;;7.20;71.80;;;;;;5105656;27;89549;-40
2023/04/09 02:57:40;;;;;;;;;;;7.30;71.80;;;;;;5104944;27;87895;-40
2023/04/09 03:00:06;;;;;;;;;;;7.20;71.80;;;;;;5105038;27;87290;-40
2023/04/09 03:02:31;;;;;;;;;;;7.20;71.80;;;;;;5105265;27;88901;-40
2023/04/09 03:04:57;;;;;;;;;;;7.20;71.80;;;;;;5107779;27;88365;-40
2023/04/09 03:07:22;;;;;;;;;;;7.20;71.80;;;;;;5105114;27;89112;-40
2023/04/09 03:09:48;;;;;;;;;;;7.20;71.80;;;;;;5105240;27;88751;-40
2023/04/09 03:12:13;;;;;;;;;;;7.20;71.90;;;;;;5105673;27;88069;-40
2023/04/09 03:14:39;;;;;;;;;;;7.20;71.80;;;;;;5104565;27;87692;-40
2023/04/09 03:17:04;;;;;;;;;;;7.20;71.80;;;;;;5104226;27;90165;-40
2023/04/09 03:19:30;;;;;;;;;;;7.20;71.80;;;;;;5105376;27;87145;-40
2023/04/09 03:21:55;;;;;;;;;;;7.20;71.90;;;;;;5104866;27;88990;-40
2023/04/09 03:24:21;;;;;;;;;;;7.20;71.90;;;;;;5104916;27;89505;-40
2023/04/09 03:26:46;;;;;;;;;;;7.20;71.80;;;;;;5108417;27;86991;-40
2023/04/09 03:29:12;;;;;;;;;;;7.20;71.80;;;;;;5104321;27;89625;-40
2023/04/09 03:31:37;;;;;;;;;;;7.20;71.80;;;;;;5101198;27;87172;-40
2023/04/09 03:34:02;;;;;;;;;;;7.20;71.80;;;;;;5105056;27;87950;-40
2023/04/09 03:36:28;;;;;;;;;;;7.20;71.80;;;;;;5103129;27;88141;-40
2023/04/09 03:38:53;;;;;;;;;;;7.10;71.80;;;;;;5105152;27;87101;-40
2023/04/09 03:41:19;;;;;;;;;;;7.20;71.90;;;;;;5104181;27;88839;-40
2023/04/09 03:43:44;;;;;;;;;;;7.20;71.90;;;;;;5104389;27;89421;-40
2023/04/09 03:46:13;;;;;;;;;;;7.20;71.90;;;;;;5107585;27;87148;-40
2023/04/09 03:48:40;;;;;;;;;;;7.20;71.90;;;;;;5104258;27;88264;-40
2023/04/09 03:51:05;;;;;;;;;;;7.20;72.00;;;;;;5104594;27;87051;-40
2023/04/09 03:53:31;;;;;;;;;;;7.20;71.90;;;;;;5103270;27;87919;-40
2023/04/09 03:55:56;;;;;;;;;;;7.20;71.80;;;;;;5103721;27;89750;-40
2023/04/09 03:58:22;;;;;;;;;;;7.20;71.90;;;;;;5105355;27;86402;-40
2023/04/09 04:00:47;;;;;;;;;;;7.20;71.90;;;;;;5104265;27;88171;-40
2023/04/09 04:03:14;;;;;;;;;;;7.10;71.90;;;;;;5104094;27;87329;-40
2023/04/09 04:05:40;;;;;;;;;;;7.20;71.90;;;;;;5103489;27;87981;-40
2023/04/09 04:08:06;;;;;;;;;;;7.10;71.90;;;;;;5106801;27;89551;-40
2023/04/09 04:10:32;;;;;;;;;;;7.10;71.90;;;;;;5104015;27;87201;-40
2023/04/09 04:12:58;;;;;;;;;;;7.10;71.80;;;;;;5104043;27;88726;-40
2023/04/09 04:15:23;;;;;;;;;;;7.10;71.90;;;;;;5103419;27;89521;-40
2023/04/09 04:17:49;;;;;;;;;;;7.10;71.90;;;;;;5103694;27;87191;-40
2023/04/09 04:20:14;;;;;;;;;;;7.10;71.90;;;;;;5103094;27;88786;-40
2023/04/09 04:22:40;;;;;;;;;;;7.10;72.50;;;;;;5101163;27;88668;-40
2023/04/09 04:25:05;;;;;;;;;;;7.10;71.80;;;;;;5103648;27;87073;-40
2023/04/09 04:27:31;;;;;;;;;;;7.10;71.90;;;;;;5103876;27;88873;-40
2023/04/09 04:30:01;;;;;;;;;;;7.10;72.50;;;;;;5105663;27;90241;-40
2023/04/09 04:32:26;;;;;;;;;;;7.10;72.00;;;;;;5103537;27;89527;-40
2023/04/09 04:34:52;;;;;;;;;;;7.10;72.00;;;;;;5099516;27;88086;-40
2023/04/09 04:37:17;;;;;;;;;;;7.10;72.00;;;;;;5104030;27;87212;-40
2023/04/09 04:39:43;;;;;;;;;;;7.10;71.90;;;;;;5103652;27;88553;-40
2023/04/09 04:42:08;;;;;;;;;;;7.10;71.90;;;;;;5103321;27;89941;-40
2023/04/09 04:44:34;;;;;;;;;;;7.10;71.90;;;;;;5103423;27;88070;-40
2023/04/09 04:46:59;;;;;;;;;;;7.10;72.00;;;;;;5103619;27;88745;-40
2023/04/09 04:49:25;;;;;;;;;;;7.10;72.00;;;;;;5103402;27;89468;-40
2023/04/09 04:51:50;;;;;;;;;;;7.10;71.90;;;;;;5106992;27;87092;-40
2023/04/09 04:54:16;;;;;;;;;;;7.10;71.90;;;;;;5102294;27;90575;-40
2023/04/09 04:56:41;;;;;;;;;;;7.10;71.90;;;;;;5103420;27;87148;-40
2023/04/09 04:59:07;;;;;;;;;;;7.10;71.90;;;;;;5103126;27;88811;-40
2023/04/09 05:01:32;;;;;;;;;;;7.10;71.90;;;;;;5103114;27;88203;-40
2023/04/09 05:03:58;;;;;;;;;;;7.10;71.90;;;;;;5103174;27;87151;-40
2023/04/09 05:06:23;;;;;;;;;;;7.10;71.90;;;;;;5103269;27;88404;-40
2023/04/09 05:08:49;;;;;;;;;;;7.10;72.50;;;;;;5103043;27;89187;-40
2023/04/09 05:11:15;;;;;;;;;;;7.10;71.90;;;;;;5103898;27;86387;-40
2023/04/09 05:13:41;;;;;;;;;;;7.10;72.00;;;;;;5105882;27;88073;-40
2023/04/09 05:16:06;;;;;;;;;;;7.10;71.90;;;;;;5102887;27;87341;-40
2023/04/09 05:18:32;;;;;;;;;;;7.10;71.90;;;;;;5102402;27;88850;-40
2023/04/09 05:20:57;;;;;;;;;;;7.10;71.90;;;;;;5102702;27;89523;-40
2023/04/09 05:23:23;;;;;;;;;;;7.10;71.90;;;;;;5102950;27;87114;-40
2023/04/09 05:25:49;;;;;;;;;;;7.10;71.90;;;;;;5103024;27;87956;-40
2023/04/09 05:28:15;;;;;;;;;;;7.10;71.90;;;;;;5102732;27;89422;-40
2023/04/09 05:30:45;;;;;;;;;;;7.10;71.90;;;;;;5102205;27;87157;-40
2023/04/09 05:33:10;;;;;;;;;;;7.10;71.90;;;;;;5103191;27;87548;-40
2023/04/09 05:35:39;;;;;;;;;;;7.10;71.90;;;;;;5105985;27;89281;-40
2023/04/09 05:38:04;;;;;;;;;;;7.10;71.90;;;;;;5102879;27;88535;-40
2023/04/09 05:40:30;;;;;;;;;;;7.10;72.00;;;;;;5102464;27;89744;-40
2023/04/09 05:42:55;;;;;;;;;;;7.10;71.90;;;;;;5102737;27;88400;-40
2023/04/09 05:45:21;;;;;;;;;;;7.10;71.90;;;;;;5103175;27;88244;-40
2023/04/09 05:47:46;;;;;;;;;;;7.10;71.90;;;;;;5098434;27;88035;-40
2023/04/09 05:50:12;;;;;;;;;;;7.10;72.00;;;;;;5102818;27;87434;-40
2023/04/09 05:52:37;;;;;;;;;;;7.10;72.00;;;;;;5102953;27;88775;-40
2023/04/09 05:55:04;;;;;;;;;;;7.10;71.90;;;;;;5101874;27;87728;-40
2023/04/09 05:57:30;;;;;;;;;;;7.10;71.90;;;;;;5098775;27;89493;-40
2023/04/09 05:59:56;;;;;;;;;;;7.10;71.80;;;;;;5105354;27;88692;-40
2023/04/09 06:02:21;;;;;;;;;;;7.10;71.80;;;;;;5106711;27;87157;-40
2023/04/09 06:04:47;;;;;;;;;;;7.10;71.90;;;;;;5106567;27;88840;-40
2023/04/09 06:07:12;;;;;;;;;;;7.10;71.80;;;;;;5101630;27;90258;-40
2023/04/09 06:09:38;;;;;;;;;;;7.10;71.80;;;;;;5106130;27;87014;-40
2023/04/09 06:12:03;;;;;;;;;;;7.10;71.80;;;;;;5106863;27;87314;-40
2023/04/09 06:14:31;;;;;;;;;;;7.10;71.80;;;;;;5105279;27;89482;-40
2023/04/09 06:16:57;;;;;;;;;;;7.20;71.90;;;;;;5109374;27;87599;-40
2023/04/09 06:19:23;;;;;;;;;;;7.10;71.80;;;;;;5105852;27;88125;-40
2023/04/09 06:21:48;;;;;;;;;;;7.10;71.80;;;;;;5105998;27;87096;-40
2023/04/09 06:24:14;;;;;;;;;;;7.20;71.80;;;;;;5106571;27;88695;-40
2023/04/09 06:26:39;;;;;;;;;;;7.10;71.80;;;;;;5105748;27;89271;-40
2023/04/09 06:29:05;;;;;;;;;;;7.10;71.80;;;;;;5106151;27;87097;-40
2023/04/09 06:31:32;;;;;;;;;;;7.20;71.80;;;;;;5105740;27;88431;-40
2023/04/09 06:33:57;;;;;;;;;;;7.20;71.80;;;;;;5106042;27;89077;-40
2023/04/09 06:36:23;;;;;;;;;;;7.20;71.80;;;;;;5106063;27;87195;-40
2023/04/09 06:38:49;;;;;;;;;;;7.20;71.70;;;;;;5109311;27;87509;-40
2023/04/09 06:41:14;;;;;;;;;;;7.20;71.80;;;;;;5106454;27;87012;-40
2023/04/09 06:43:40;;;;;;;;;;;7.20;71.80;;;;;;5105840;27;88573;-40
2023/04/09 06:46:05;;;;;;;;;;;7.20;71.80;;;;;;5105014;27;88397;-40
2023/04/09 06:48:31;;;;;;;;;;;7.20;71.90;;;;;;5105952;27;86323;-40
2023/04/09 06:50:56;;;;;;;;;;;7.20;71.90;;;;;;5106105;27;88182;-40
2023/04/09 06:53:21;;;;;;;;;;;7.20;71.90;;;;;;5105120;27;89352;-40
2023/04/09 06:55:47;;;;;;;;;;;7.20;72.00;;;;;;5105357;27;87894;-40
2023/04/09 06:58:12;;;;;;;;;;;7.20;71.90;;;;;;5105210;27;89929;-40
2023/04/09 07:00:38;;;;;;;;;;;7.20;72.10;;;;;;5108003;27;89199;-40
2023/04/09 07:03:04;;;;;;;;;;;7.20;72.00;;;;;;5105172;27;87892;-40
2023/04/09 07:05:30;;;;;;;;;;;7.20;72.00;;;;;;5104834;27;89508;-40
2023/04/09 07:07:55;;;;;;;;;;;7.20;72.10;;;;;;5104944;27;87078;-40
2023/04/09 07:10:21;;;;;;;;;;;7.20;72.00;;;;;;5105044;27;88578;-40
2023/04/09 07:12:46;;;;;;;;;;;7.20;72.10;;;;;;5101038;27;88886;-40
2023/04/09 07:15:12;;;;;;;;;;;7.20;72.20;;;;;;5104670;27;87152;-40
2023/04/09 07:17:37;;;;;;;;;;;7.20;72.10;;;;;;5105181;27;87307;-40
2023/04/09 07:20:05;;;;;;;;;;;7.20;72.20;;;;;;5104174;27;90093;-40
2023/04/09 07:22:30;;;;;;;;;;;7.20;72.10;;;;;;5108009;27;87683;-40
2023/04/09 07:24:56;;;;;;;;;;;7.20;72.00;;;;;;5104654;27;88048;-40
2023/04/09 07:27:22;;;;;;;;;;;7.30;72.00;;;;;;5104791;27;87176;-40
2023/04/09 07:29:48;;;;;;;;;;;7.30;72.00;;;;;;5105041;27;88579;-40
2023/04/09 07:32:14;;;;;;;;;;;7.20;72.00;;;;;;5104684;27;89599;-40
2023/04/09 07:34:40;;;;;;;;;;;7.20;72.10;;;;;;5104983;27;87101;-40
2023/04/09 07:37:06;;;;;;;;;;;7.20;72.10;;;;;;5105355;27;89538;-40
2023/04/09 07:39:31;;;;;;;;;;;7.30;72.10;;;;;;5104733;27;89682;-40
2023/04/09 07:41:57;;;;;;;;;;;7.30;72.00;;;;;;5104800;27;87167;-40
2023/04/09 07:44:23;;;;;;;;;;;7.30;72.00;;;;;;5106830;27;88042;-40
2023/04/09 07:46:48;;;;;;;;;;;7.30;72.10;;;;;;5104846;27;87269;-40
2023/04/09 07:49:16;;;;;;;;;;;7.20;72.10;;;;;;5104570;27;88614;-40
2023/04/09 07:51:41;;;;;;;;;;;7.20;72.20;;;;;;5104374;27;89282;-40
2023/04/09 07:54:07;;;;;;;;;;;7.20;72.20;;;;;;5104899;27;87180;-40
2023/04/09 07:56:33;;;;;;;;;;;7.20;72.30;;;;;;5104225;27;87836;-40
2023/04/09 07:58:58;;;;;;;;;;;7.20;72.30;;;;;;5103935;27;90165;-40
2023/04/09 08:01:25;;;;;;;;;;;7.30;72.50;;;;;;5104659;27;86587;-40
2023/04/09 08:03:50;;;;;;;;;;;7.20;72.40;;;;;;5106809;27;87270;-40
2023/04/09 08:06:16;;;;;;;;;;;7.20;72.30;;;;;;5104179;27;87149;-40
2023/04/09 08:08:41;;;;;;;;;;;7.30;72.60;;;;;;5103784;27;88813;-40
2023/04/09 08:11:07;;;;;;;;;;;7.30;72.50;;;;;;5104376;27;89654;-40
2023/04/09 08:13:33;;;;;;;;;;;7.30;72.60;;;;;;5103738;27;87228;-40
2023/04/09 08:16:01;;;;;;;;;;;7.30;72.40;;;;;;5104678;27;87321;-40
2023/04/09 08:18:27;;;;;;;;;;;7.30;72.50;;;;;;5100094;27;89410;-40
2023/04/09 08:20:52;;;;;;;;;;;7.30;72.80;;;;;;5104161;27;87104;-40
2023/04/09 08:23:18;;;;;;;;;;;7.30;72.70;;;;;;5103855;27;87472;-40
2023/04/09 08:25:43;;;;;;;;;;;7.40;72.60;;;;;;5107241;27;88426;-40
2023/04/09 08:28:09;;;;;;;;;;;7.40;72.50;;;;;;5104386;27;88451;-40
2023/04/09 08:30:35;;;;;;;;;;;7.30;72.60;;;;;;5103616;27;88264;-40
2023/04/09 08:33:01;;;;;;;;;;;7.40;72.50;;;;;;5099330;27;88085;-40
2023/04/09 08:35:27;;;;;;;;;;;7.40;72.50;;;;;;5104237;27;88450;-40
2023/04/09 08:37:54;;;;;;;;;;;7.40;72.50;;;;;;5103505;27;89365;-40
2023/04/09 08:40:19;;;;;;;;;;;7.50;72.50;;;;;;5103519;27;87130;-40
2023/04/09 08:42:45;;;;;;;;;;;7.50;72.70;;;;;;5103945;27;89008;-40
2023/04/09 08:45:11;;;;;;;;;;;7.50;72.60;;;;;;5101691;27;91517;-40
2023/04/09 08:47:38;;;;;;;;;;;7.50;72.50;;;;;;5106419;27;87157;-40
2023/04/09 08:50:03;;;;;;;;;;;7.50;72.50;;;;;;5103689;27;88615;-40
2023/04/09 08:52:33;;;;;;;;;;;7.50;72.40;;;;;;5103771;27;87212;-40
2023/04/09 08:54:58;;;;;;;;;;;7.50;72.50;;;;;;5103474;27;88642;-40
2023/04/09 08:57:24;;;;;;;;;;;7.50;72.50;;;;;;5102226;27;90367;-40
2023/04/09 08:59:49;;;;;;;;;;;7.60;72.50;;;;;;5099140;27;87236;-40
2023/04/09 09:02:15;;;;;;;;;;;7.60;72.70;;;;;;5103784;27;88994;-40
2023/04/09 09:04:47;;;;;;;;;;;7.60;72.60;;;;;;5102934;27;89204;-40
2023/04/09 09:07:13;;;;;;;;;;;7.60;72.60;;;;;;5103466;27;87710;-40
2023/04/09 09:09:58;;;;;;;;;;;7.60;72.70;;;;;;5105907;27;88470;-40
2023/04/09 09:12:35;;;;;;;;;;;7.60;73.00;;;;;;5103052;27;87008;-40
2023/04/09 09:15:01;;;;;;;;;;;7.60;72.80;;;;;;5100582;27;88749;-40
2023/04/09 09:17:27;;;;;;;;;;;7.60;72.90;;;;;;5103151;27;89291;-40
2023/04/09 09:19:53;;;;;;;;;;;7.60;72.70;;;;;;5103136;27;87210;-40
2023/04/09 09:22:18;;;;;;;;;;;7.60;72.90;;;;;;5102490;27;88713;-40
2023/04/09 09:24:51;;;;;;;;;;;7.60;72.60;;;;;;5103356;27;88207;-40
2023/04/09 09:27:35;;;;;;;;;;;7.60;72.70;;;;;;5103219;27;87485;-40
2023/04/09 09:30:02;;;;;;;;;;;7.60;72.70;;;;;;5099878;27;88710;-40
2023/04/09 09:32:28;;;;;;;;;;;7.60;73.00;;;;;;5105492;27;89392;-40
2023/04/09 09:35:03;;;;;;;;;;;7.70;73.00;;;;;;5101935;27;88649;-40
2023/04/09 09:37:30;;;;;;;;;;;7.70;72.70;;;;;;5098588;27;90365;-40
2023/04/09 09:39:56;;;;;;;;;;;7.70;72.80;;;;;;5103573;27;86926;-40
2023/04/09 09:42:22;;;;;;;;;;;7.60;73.00;;;;;;5102834;27;88260;-40
2023/04/09 09:44:48;;;;;;;;;;;7.60;73.10;;;;;;5102736;27;88679;-40
2023/04/09 09:47:16;;;;;;;;;;;7.70;73.10;;;;;;5102258;27;88076;-40
2023/04/09 09:49:41;;;;;;;;;;;7.70;72.90;;;;;;5102664;27;89792;-41
2023/04/09 09:52:08;;;;;;;;;;;7.80;72.70;;;;;;5102625;27;87856;-40
2023/04/09 09:54:38;;;;;;;;;;;7.70;73.00;;;;;;5105526;27;87074;-40
2023/04/09 09:57:06;;;;;;;;;;;7.60;73.50;;;;;;5102521;27;88114;-40
2023/04/09 09:59:36;;;;;;;;;;;7.60;73.70;;;;;;5103026;27;87241;-40
2023/04/09 10:02:04;;;;;;;;;;;7.70;73.70;;;;;;5099221;27;88822;-40
2023/04/09 10:04:33;;;;;;;;;;;7.70;73.40;;;;;;5102529;27;87753;-40
2023/04/09 10:07:00;;;;;;;;;;;7.60;73.50;;;;;;5102425;27;87158;-40
2023/04/09 10:09:26;;;;;;;;;;;7.50;74.10;;;;;;5102401;27;88981;-40
2023/04/09 10:11:53;;;;;;;;;;;7.40;74.70;;;;;;5101378;27;90238;-40
2023/04/09 10:14:19;;;;;;;;;;;7.40;74.50;;;;;;5105189;27;87137;-40
2023/04/09 10:16:45;;;;;;;;;;;7.40;75.00;;;;;;5098068;27;89328;-40
2023/04/09 10:19:13;;;;;;;;;;;7.40;75.00;;;;;;5102254;27;87184;-40
2023/04/09 10:21:46;;;;;;;;;;;7.50;74.80;;;;;;5102522;27;87121;-40
2023/04/09 10:24:11;;;;;;;;;;;7.60;74.70;;;;;;5099104;27;89600;-40
2023/04/09 10:26:40;;;;;;;;;;;7.70;74.30;;;;;;5102467;27;87429;-40
2023/04/09 10:29:12;;;;;;;;;;;7.70;74.30;;;;;;5102932;27;88883;-40
2023/04/09 10:31:45;;;;;;;;;;;7.70;74.20;;;;;;5097955;27;88657;-40
2023/04/09 10:34:13;;;;;;;;;;;7.70;74.10;;;;;;5102197;27;87416;-40
2023/04/09 10:36:42;;;;;;;;;;;7.70;73.90;;;;;;5103970;27;88769;-40
2023/04/09 10:39:11;;;;;;;;;;;7.70;73.70;;;;;;5101906;27;87023;-40
2023/04/09 10:41:37;;;;;;;;;;;7.80;74.10;;;;;;5102394;27;89348;-40
2023/04/09 10:44:06;;;;;;;;;;;7.80;74.20;;;;;;5101968;27;89202;-40
2023/04/09 10:46:35;;;;;;;;;;;7.80;74.00;;;;;;5105155;27;87113;-40
2023/04/09 10:49:11;;;;;;;;;;;7.80;74.10;;;;;;5105419;27;89164;-40
2023/04/09 10:51:39;;;;;;;;;;;7.80;74.10;;;;;;5105225;27;88532;-40
2023/04/09 10:54:05;;;;;;;;;;;7.80;74.10;;;;;;5106024;27;86790;-40
2023/04/09 10:56:31;;;;;;;;;;;7.80;74.10;;;;;;5105408;27;88028;-40
2023/04/09 10:58:57;;;;;;;;;;;7.80;74.00;;;;;;5107773;27;89584;-40
2023/04/09 11:01:23;;;;;;;;;;;7.80;74.10;;;;;;5104835;27;88488;-40
2023/04/09 11:04:06;;;;;;;;;;;7.80;74.10;;;;;;5105143;27;89340;-40
2023/04/09 11:06:31;;;;;;;;;;;7.80;74.00;;;;;;5098180;27;87773;-40
2023/04/09 11:09:00;;;;;;;;;;;7.90;74.10;;;;;;5105120;27;88778;-40
2023/04/09 11:11:26;;;;;;;;;;;7.90;74.10;;;;;;5104571;27;88131;-40
2023/04/09 11:13:57;;;;;;;;;;;7.90;74.10;;;;;;5105340;27;87156;-40
2023/04/09 11:16:22;;;;;;;;;;;7.80;74.00;;;;;;5101977;27;88937;-40
2023/04/09 11:18:47;;;;;;;;;;;7.90;74.10;;;;;;5105507;27;87004;-40
2023/04/09 11:21:15;;;;;;;;;;;7.90;74.10;;;;;;5108184;27;87153;-40
2023/04/09 11:23:41;;;;;;;;;;;7.90;74.10;;;;;;5104951;27;89171;-40
2023/04/09 11:26:08;;;;;;;;;;;7.90;74.00;;;;;;5104284;27;88134;-40
2023/04/09 11:28:33;;;;;;;;;;;7.90;74.00;;;;;;5104787;27;90568;-40
2023/04/09 11:31:00;;;;;;;;;;;7.90;74.10;;;;;;5104892;27;89667;-40
2023/04/09 11:33:33;;;;;;;;;;;7.90;74.10;;;;;;5105051;27;87686;-40
2023/04/09 11:35:58;;;;;;;;;;;7.90;74.10;;;;;;5105025;27;88725;-40
2023/04/09 11:38:24;;;;;;;;;;;7.90;74.10;;;;;;5104513;27;89754;-40
2023/04/09 11:40:50;;;;;;;;;;;7.90;74.20;;;;;;5104783;27;87201;-40
2023/04/09 11:43:15;;;;;;;;;;;7.90;74.20;;;;;;5107671;27;88589;-40
2023/04/09 11:45:41;;;;;;;;;;;7.90;74.10;;;;;;5104725;27;87174;-40
2023/04/09 11:48:07;;;;;;;;;;;8.00;74.20;;;;;;5104789;27;89074;-40
2023/04/09 11:50:32;;;;;;;;;;;8.00;74.20;;;;;;5103764;27;89857;-40
2023/04/09 11:52:58;;;;;;;;;;;8.00;74.20;;;;;;5104655;27;87181;-40
2023/04/09 11:55:23;;;;;;;;;;;8.00;74.30;;;;;;5104488;27;87428;-40
2023/04/09 11:57:51;;;;;;;;;;;8.00;74.10;;;;;;5102900;27;89339;-40
2023/04/09 12:00:17;;;;;;;;;;;8.10;74.20;;;;;;5104656;27;87179;-40
2023/04/09 12:02:46;;;;;;;;;;;8.10;74.30;;;;;;5107146;27;88792;-40
2023/04/09 12:05:19;;;;;;;;;;;8.10;74.30;;;;;;5104200;27;88047;-40
2023/04/09 12:07:45;;;;;;;;;;;8.10;74.40;;;;;;5101813;27;88794;-40
2023/04/09 12:10:10;;;;;;;;;;;8.10;74.50;;;;;;5103969;27;89611;-40
2023/04/09 12:12:43;;;;;;;;;;;8.00;74.40;;;;;;5104279;27;87180;-40
2023/04/09 12:15:11;;;;;;;;;;;8.00;74.40;;;;;;5103103;27;88930;-40
2023/04/09 12:17:37;;;;;;;;;;;8.10;74.50;;;;;;5103993;27;89703;-40
2023/04/09 12:20:02;;;;;;;;;;;8.10;74.50;;;;;;5103899;27;87474;-40
2023/04/09 12:22:28;;;;;;;;;;;8.10;74.50;;;;;;5104178;27;88876;-40
2023/04/09 12:24:54;;;;;;;;;;;8.10;74.60;;;;;;5106853;27;89232;-40
2023/04/09 12:27:19;;;;;;;;;;;8.10;74.50;;;;;;5103879;27;88758;-40
2023/04/09 12:29:46;;;;;;;;;;;8.10;74.40;;;;;;5103646;27;89375;-40
2023/04/09 12:32:11;;;;;;;;;;;8.10;74.40;;;;;;5104488;27;86370;-40
2023/04/09 12:34:37;;;;;;;;;;;8.10;74.40;;;;;;5103932;27;87460;-40
2023/04/09 12:37:03;;;;;;;;;;;8.10;74.40;;;;;;5103361;27;89886;-40
2023/04/09 12:39:29;;;;;;;;;;;8.20;74.40;;;;;;5103520;27;88798;-41
2023/04/09 12:41:55;;;;;;;;;;;8.10;74.40;;;;;;5103637;27;90096;-40
2023/04/09 12:44:20;;;;;;;;;;;8.20;74.40;;;;;;5103168;27;88904;-40
2023/04/09 12:46:46;;;;;;;;;;;8.20;75.00;;;;;;5106451;27;87041;-40
2023/04/09 12:49:12;;;;;;;;;;;8.20;74.40;;;;;;5103262;27;89720;-40
2023/04/09 12:51:37;;;;;;;;;;;8.20;74.20;;;;;;5103603;27;87041;-40
2023/04/09 12:54:03;;;;;;;;;;;8.20;74.20;;;;;;5103366;27;88523;-40
2023/04/09 12:56:28;;;;;;;;;;;8.20;74.20;;;;;;5104053;27;88419;-40
2023/04/09 12:58:54;;;;;;;;;;;8.30;74.40;;;;;;5103433;27;87377;-40
2023/04/09 13:01:19;;;;;;;;;;;8.30;74.50;;;;;;5103608;27;88657;-40
2023/04/09 13:03:45;;;;;;;;;;;8.30;74.40;;;;;;5101002;27;90450;-41
2023/04/09 13:06:10;;;;;;;;;;;8.30;74.50;;;;;;5100637;27;87586;-40
2023/04/09 13:08:36;;;;;;;;;;;8.30;74.50;;;;;;5101845;27;87793;-40
2023/04/09 13:11:01;;;;;;;;;;;8.30;74.50;;;;;;5103215;27;87060;-40
2023/04/09 13:13:27;;;;;;;;;;;8.30;74.50;;;;;;5103228;27;88783;-40
2023/04/09 13:15:53;;;;;;;;;;;8.30;74.50;;;;;;5103358;27;88163;-40
2023/04/09 13:18:18;;;;;;;;;;;8.30;74.60;;;;;;5103081;27;87098;-40
2023/04/09 13:20:44;;;;;;;;;;;8.30;74.60;;;;;;5103826;27;87337;-40
2023/04/09 13:23:09;;;;;;;;;;;8.30;74.60;;;;;;5102667;27;89438;-40
2023/04/09 13:25:35;;;;;;;;;;;8.30;74.60;;;;;;5102968;27;87576;-40
2023/04/09 13:28:00;;;;;;;;;;;8.30;74.60;;;;;;5102733;27;87971;-40
2023/04/09 13:30:26;;;;;;;;;;;8.30;74.60;;;;;;5105639;27;89255;-40
2023/04/09 13:32:51;;;;;;;;;;;8.40;74.60;;;;;;5103180;27;87803;-40
2023/04/09 13:35:17;;;;;;;;;;;8.30;74.60;;;;;;5102393;27;89129;-40
2023/04/09 13:37:43;;;;;;;;;;;8.30;74.60;;;;;;5103310;27;87167;-40
2023/04/09 13:40:09;;;;;;;;;;;8.30;74.50;;;;;;5103187;27;87365;-40
2023/04/09 13:42:36;;;;;;;;;;;8.40;74.60;;;;;;5101953;27;89265;-40
2023/04/09 13:45:02;;;;;;;;;;;8.40;74.50;;;;;;5103664;27;86332;-40
2023/04/09 13:47:27;;;;;;;;;;;8.40;74.50;;;;;;5102835;27;87739;-40
2023/04/09 13:49:53;;;;;;;;;;;8.40;74.50;;;;;;5103215;27;89341;-40
2023/04/09 13:52:19;;;;;;;;;;;8.40;74.50;;;;;;5104799;27;88409;-41
2023/04/09 13:54:44;;;;;;;;;;;8.40;74.70;;;;;;5102680;27;89270;-41
2023/04/09 13:57:10;;;;;;;;;;;8.40;74.80;;;;;;5102440;27;87139;-41
2023/04/09 13:59:37;;;;;;;;;;;8.40;74.80;;;;;;5103135;27;87278;-40
2023/04/09 14:02:02;;;;;;;;;;;8.40;74.70;;;;;;5098649;27;89481;-40
2023/04/09 14:04:28;;;;;;;;;;;8.40;74.70;;;;;;5102505;27;87088;-40
2023/04/09 14:06:53;;;;;;;;;;;8.40;74.80;;;;;;5102665;27;88740;-40
2023/04/09 14:09:19;;;;;;;;;;;8.50;74.70;;;;;;5103021;27;88753;-40
2023/04/09 14:11:45;;;;;;;;;;;8.50;74.60;;;;;;5105486;27;87023;-40
2023/04/09 14:14:10;;;;;;;;;;;8.50;74.60;;;;;;5101870;27;89234;-40
2023/04/09 14:16:36;;;;;;;;;;;8.40;74.90;;;;;;5101741;27;88388;-40
2023/04/09 14:19:01;;;;;;;;;;;8.50;74.80;;;;;;5102739;27;89979;-40
2023/04/09 14:21:28;;;;;;;;;;;8.50;74.80;;;;;;5101203;27;88015;-41
2023/04/09 14:23:53;;;;;;;;;;;8.50;74.80;;;;;;5106087;27;87101;-40
2023/04/09 14:26:19;;;;;;;;;;;8.50;74.70;;;;;;5105930;27;88583;-40